sensor_id;sensor_type;location;lat;lon;timestamp;temperature;humidity
52103;DHT22;38101;53.126;6.878;2022-07-29T00:01:55;16.00;99.90
52103;DHT22;38101;53.126;6.878;2022-07-29T00:04:21;16.00;99.90
52103;DHT22;38101;53.126;6.878;2022-07-29T00:06:46;16.00;99.90
52103;DHT22;38101;53.126;6.878;2022-07-29T00:09:12;16.00;99.90
52103;DHT22;38101;53.126;6.878;2022-07-29T00:11:38;16.00;99.90
52103;DHT22;38101;53.126;6.878;2022-07-29T00:14:04;16.00;99.90
52103;DHT22;38101;53.126;6.878;2022-07-29T00:16:29;16.10;99.90
52103;DHT22;38101;53.126;6.878;2022-07-29T00:18:55;16.10;99.90
52103;DHT22;38101;53.126;6.878;2022-07-29T00:21:21;16.10;99.90
52103;DHT22;38101;53.126;6.878;2022-07-29T00:23:46;16.10;99.90
52103;DHT22;38101;53.126;6.878;2022-07-29T00:26:12;16.10;99.90
52103;DHT22;38101;53.126;6.878;2022-07-29T00:28:37;16.10;99.90
52103;DHT22;38101;53.126;6.878;2022-07-29T00:31:03;16.10;99.90
52103;DHT22;38101;53.126;6.878;2022-07-29T00:33:29;16.10;99.90
52103;DHT22;38101;53.126;6.878;2022-07-29T00:35:54;16.10;99.90
52103;DHT22;38101;53.126;6.878;2022-07-29T00:38:20;16.10;99.90
52103;DHT22;38101;53.126;6.878;2022-07-29T00:40:46;16.10;99.90
52103;DHT22;38101;53.126;6.878;2022-07-29T00:43:13;16.10;99.90
52103;DHT22;38101;53.126;6.878;2022-07-29T00:45:40;16.10;99.90
52103;DHT22;38101;53.126;6.878;2022-07-29T00:48:06;16.10;99.90
52103;DHT22;38101;53.126;6.878;2022-07-29T00:50:34;16.10;99.90
52103;DHT22;38101;53.126;6.878;2022-07-29T00:53:00;16.10;99.90
52103;DHT22;38101;53.126;6.878;2022-07-29T00:55:26;16.10;99.90
52103;DHT22;38101;53.126;6.878;2022-07-29T00:57:52;16.10;99.90
52103;DHT22;38101;53.126;6.878;2022-07-29T01:00:21;16.10;99.90
52103;DHT22;38101;53.126;6.878;2022-07-29T01:02:47;16.10;99.90
52103;DHT22;38101;53.126;6.878;2022-07-29T01:05:18;16.00;99.90
52103;DHT22;38101;53.126;6.878;2022-07-29T01:07:45;16.10;99.90
52103;DHT22;38101;53.126;6.878;2022-07-29T01:10:13;16.10;99.90
52103;DHT22;38101;53.126;6.878;2022-07-29T01:12:40;16.10;99.90
52103;DHT22;38101;53.126;6.878;2022-07-29T01:15:08;16.10;99.90
52103;DHT22;38101;53.126;6.878;2022-07-29T01:17:45;16.10;99.90
52103;DHT22;38101;53.126;6.878;2022-07-29T01:31:54;16.00;99.90
52103;DHT22;38101;53.126;6.878;2022-07-29T01:34:25;16.00;99.90
52103;DHT22;38101;53.126;6.878;2022-07-29T01:37:22;16.00;99.90
52103;DHT22;38101;53.126;6.878;2022-07-29T01:39:48;16.00;99.90
52103;DHT22;38101;53.126;6.878;2022-07-29T01:45:12;16.00;99.90
52103;DHT22;38101;53.126;6.878;2022-07-29T01:48:03;15.90;99.90
52103;DHT22;38101;53.126;6.878;2022-07-29T01:50:38;15.90;99.90
52103;DHT22;38101;53.126;6.878;2022-07-29T01:53:08;15.90;99.90
52103;DHT22;38101;53.126;6.878;2022-07-29T01:55:38;16.00;99.90
52103;DHT22;38101;53.126;6.878;2022-07-29T01:58:05;16.00;99.90
52103;DHT22;38101;53.126;6.878;2022-07-29T02:00:33;16.00;99.90
52103;DHT22;38101;53.126;6.878;2022-07-29T02:03:03;16.00;99.90
52103;DHT22;38101;53.126;6.878;2022-07-29T02:05:31;16.00;99.90
52103;DHT22;38101;53.126;6.878;2022-07-29T02:07:59;15.90;99.90
52103;DHT22;38101;53.126;6.878;2022-07-29T02:10:29;16.00;99.90
52103;DHT22;38101;53.126;6.878;2022-07-29T02:12:57;15.90;99.90
52103;DHT22;38101;53.126;6.878;2022-07-29T02:15:25;15.90;99.90
52103;DHT22;38101;53.126;6.878;2022-07-29T02:17:56;15.90;99.90
52103;DHT22;38101;53.126;6.878;2022-07-29T02:20:25;16.00;99.90
52103;DHT22;38101;53.126;6.878;2022-07-29T02:22:53;15.90;99.90
52103;DHT22;38101;53.126;6.878;2022-07-29T02:25:21;15.90;99.90
52103;DHT22;38101;53.126;6.878;2022-07-29T02:27:50;16.00;99.90
52103;DHT22;38101;53.126;6.878;2022-07-29T02:30:17;15.90;99.90
52103;DHT22;38101;53.126;6.878;2022-07-29T02:32:43;15.90;99.90
52103;DHT22;38101;53.126;6.878;2022-07-29T02:35:13;15.90;99.90
52103;DHT22;38101;53.126;6.878;2022-07-29T02:37:41;15.90;99.90
52103;DHT22;38101;53.126;6.878;2022-07-29T02:40:10;15.90;99.90
52103;DHT22;38101;53.126;6.878;2022-07-29T02:42:37;15.90;99.90
52103;DHT22;38101;53.126;6.878;2022-07-29T02:45:04;15.90;99.90
52103;DHT22;38101;53.126;6.878;2022-07-29T02:47:36;15.90;99.90
52103;DHT22;38101;53.126;6.878;2022-07-29T02:50:06;15.90;99.90
52103;DHT22;38101;53.126;6.878;2022-07-29T02:55:55;15.90;99.90
52103;DHT22;38101;53.126;6.878;2022-07-29T02:58:27;15.80;99.90
52103;DHT22;38101;53.126;6.878;2022-07-29T03:01:03;15.80;99.90
52103;DHT22;38101;53.126;6.878;2022-07-29T03:03:34;15.80;99.90
52103;DHT22;38101;53.126;6.878;2022-07-29T03:06:02;15.80;99.90
52103;DHT22;38101;53.126;6.878;2022-07-29T03:08:30;15.80;99.90
52103;DHT22;38101;53.126;6.878;2022-07-29T03:10:57;15.80;99.90
52103;DHT22;38101;53.126;6.878;2022-07-29T03:13:23;15.80;99.90
52103;DHT22;38101;53.126;6.878;2022-07-29T03:15:50;15.80;99.90
52103;DHT22;38101;53.126;6.878;2022-07-29T03:18:16;15.80;99.90
52103;DHT22;38101;53.126;6.878;2022-07-29T03:20:42;15.80;99.90
52103;DHT22;38101;53.126;6.878;2022-07-29T03:23:08;15.80;99.90
52103;DHT22;38101;53.126;6.878;2022-07-29T03:25:34;15.80;99.90
52103;DHT22;38101;53.126;6.878;2022-07-29T03:28:00;15.80;99.90
52103;DHT22;38101;53.126;6.878;2022-07-29T03:30:26;15.80;99.90
52103;DHT22;38101;53.126;6.878;2022-07-29T03:32:53;15.80;99.90
52103;DHT22;38101;53.126;6.878;2022-07-29T03:35:19;15.80;99.90
52103;DHT22;38101;53.126;6.878;2022-07-29T03:37:46;15.80;99.90
52103;DHT22;38101;53.126;6.878;2022-07-29T03:40:18;15.70;99.90
52103;DHT22;38101;53.126;6.878;2022-07-29T03:42:45;15.70;99.90
52103;DHT22;38101;53.126;6.878;2022-07-29T03:45:15;15.80;99.90
52103;DHT22;38101;53.126;6.878;2022-07-29T03:47:47;15.70;99.90
52103;DHT22;38101;53.126;6.878;2022-07-29T03:50:14;15.70;99.90
52103;DHT22;38101;53.126;6.878;2022-07-29T03:52:40;15.70;99.90
52103;DHT22;38101;53.126;6.878;2022-07-29T03:55:07;15.70;99.90
52103;DHT22;38101;53.126;6.878;2022-07-29T03:57:35;15.70;99.90
52103;DHT22;38101;53.126;6.878;2022-07-29T04:00:03;15.70;99.90
52103;DHT22;38101;53.126;6.878;2022-07-29T04:02:31;15.70;99.90
52103;DHT22;38101;53.126;6.878;2022-07-29T04:04:57;15.60;99.90
52103;DHT22;38101;53.126;6.878;2022-07-29T04:07:23;15.70;99.90
52103;DHT22;38101;53.126;6.878;2022-07-29T04:09:48;15.60;99.90
52103;DHT22;38101;53.126;6.878;2022-07-29T04:12:14;15.60;99.90
52103;DHT22;38101;53.126;6.878;2022-07-29T04:14:40;15.70;99.90
52103;DHT22;38101;53.126;6.878;2022-07-29T04:17:06;15.60;99.90
52103;DHT22;38101;53.126;6.878;2022-07-29T04:19:32;15.60;99.90
52103;DHT22;38101;53.126;6.878;2022-07-29T04:21:58;15.70;99.90
52103;DHT22;38101;53.126;6.878;2022-07-29T04:24:25;15.60;99.90
52103;DHT22;38101;53.126;6.878;2022-07-29T04:26:51;15.60;99.90
52103;DHT22;38101;53.126;6.878;2022-07-29T04:29:16;15.60;99.90
52103;DHT22;38101;53.126;6.878;2022-07-29T04:31:42;15.70;99.90
52103;DHT22;38101;53.126;6.878;2022-07-29T04:34:09;15.70;99.90
52103;DHT22;38101;53.126;6.878;2022-07-29T04:36:35;15.70;99.90
52103;DHT22;38101;53.126;6.878;2022-07-29T04:39:00;15.70;99.90
52103;DHT22;38101;53.126;6.878;2022-07-29T04:41:27;15.60;99.90
52103;DHT22;38101;53.126;6.878;2022-07-29T04:43:53;15.60;99.90
52103;DHT22;38101;53.126;6.878;2022-07-29T04:46:19;15.70;99.90
52103;DHT22;38101;53.126;6.878;2022-07-29T04:48:47;15.60;99.90
52103;DHT22;38101;53.126;6.878;2022-07-29T04:51:14;15.70;99.90
52103;DHT22;38101;53.126;6.878;2022-07-29T04:53:40;15.70;99.90
52103;DHT22;38101;53.126;6.878;2022-07-29T04:56:06;15.70;99.90
52103;DHT22;38101;53.126;6.878;2022-07-29T04:58:34;15.70;99.90
52103;DHT22;38101;53.126;6.878;2022-07-29T05:01:00;15.60;99.90
52103;DHT22;38101;53.126;6.878;2022-07-29T05:03:25;15.70;99.90
52103;DHT22;38101;53.126;6.878;2022-07-29T05:05:51;15.70;99.90
52103;DHT22;38101;53.126;6.878;2022-07-29T05:08:17;15.70;99.90
52103;DHT22;38101;53.126;6.878;2022-07-29T05:10:43;15.80;99.90
52103;DHT22;38101;53.126;6.878;2022-07-29T05:13:08;15.80;99.90
52103;DHT22;38101;53.126;6.878;2022-07-29T05:15:35;15.80;99.90
52103;DHT22;38101;53.126;6.878;2022-07-29T05:18:01;15.70;99.90
52103;DHT22;38101;53.126;6.878;2022-07-29T05:20:28;15.80;99.90
52103;DHT22;38101;53.126;6.878;2022-07-29T05:22:59;15.80;99.90
52103;DHT22;38101;53.126;6.878;2022-07-29T05:25:28;15.80;99.90
52103;DHT22;38101;53.126;6.878;2022-07-29T05:27:55;15.80;99.90
52103;DHT22;38101;53.126;6.878;2022-07-29T05:30:21;15.80;99.90
52103;DHT22;38101;53.126;6.878;2022-07-29T05:32:47;15.90;99.90
52103;DHT22;38101;53.126;6.878;2022-07-29T05:35:14;15.90;99.90
52103;DHT22;38101;53.126;6.878;2022-07-29T05:37:40;15.90;99.90
52103;DHT22;38101;53.126;6.878;2022-07-29T05:40:06;15.90;99.90
52103;DHT22;38101;53.126;6.878;2022-07-29T05:42:32;16.00;99.90
52103;DHT22;38101;53.126;6.878;2022-07-29T05:44:59;16.00;99.90
52103;DHT22;38101;53.126;6.878;2022-07-29T05:47:28;16.00;99.90
52103;DHT22;38101;53.126;6.878;2022-07-29T05:49:54;16.00;99.90
52103;DHT22;38101;53.126;6.878;2022-07-29T05:52:20;16.10;99.90
52103;DHT22;38101;53.126;6.878;2022-07-29T05:54:46;16.10;99.90
52103;DHT22;38101;53.126;6.878;2022-07-29T05:57:16;16.10;99.90
52103;DHT22;38101;53.126;6.878;2022-07-29T05:59:42;16.10;99.90
52103;DHT22;38101;53.126;6.878;2022-07-29T06:02:08;16.10;99.90
52103;DHT22;38101;53.126;6.878;2022-07-29T06:04:34;16.10;99.90
52103;DHT22;38101;53.126;6.878;2022-07-29T06:06:59;16.10;99.90
52103;DHT22;38101;53.126;6.878;2022-07-29T06:09:25;16.20;99.90
52103;DHT22;38101;53.126;6.878;2022-07-29T06:11:52;16.20;99.90
52103;DHT22;38101;53.126;6.878;2022-07-29T06:14:18;16.30;99.90
52103;DHT22;38101;53.126;6.878;2022-07-29T06:16:44;16.30;99.90
52103;DHT22;38101;53.126;6.878;2022-07-29T06:19:10;16.30;99.90
52103;DHT22;38101;53.126;6.878;2022-07-29T06:21:35;16.30;99.90
52103;DHT22;38101;53.126;6.878;2022-07-29T06:24:01;16.30;99.90
52103;DHT22;38101;53.126;6.878;2022-07-29T06:26:27;16.30;99.90
52103;DHT22;38101;53.126;6.878;2022-07-29T06:28:53;16.30;99.90
52103;DHT22;38101;53.126;6.878;2022-07-29T06:31:18;16.40;99.90
52103;DHT22;38101;53.126;6.878;2022-07-29T06:33:44;16.40;99.90
52103;DHT22;38101;53.126;6.878;2022-07-29T06:36:10;16.40;99.90
52103;DHT22;38101;53.126;6.878;2022-07-29T06:38:36;16.40;99.90
52103;DHT22;38101;53.126;6.878;2022-07-29T06:41:03;16.40;99.90
52103;DHT22;38101;53.126;6.878;2022-07-29T06:43:36;16.40;99.90
52103;DHT22;38101;53.126;6.878;2022-07-29T06:46:16;16.50;99.90
52103;DHT22;38101;53.126;6.878;2022-07-29T06:48:46;16.50;99.90
52103;DHT22;38101;53.126;6.878;2022-07-29T06:51:13;16.50;99.90
52103;DHT22;38101;53.126;6.878;2022-07-29T06:53:39;16.50;99.90
52103;DHT22;38101;53.126;6.878;2022-07-29T06:56:07;16.60;99.90
52103;DHT22;38101;53.126;6.878;2022-07-29T06:58:36;16.70;99.90
52103;DHT22;38101;53.126;6.878;2022-07-29T07:01:03;16.60;99.90
52103;DHT22;38101;53.126;6.878;2022-07-29T07:03:30;16.60;99.90
52103;DHT22;38101;53.126;6.878;2022-07-29T07:05:56;16.60;99.90
52103;DHT22;38101;53.126;6.878;2022-07-29T07:08:22;16.70;99.90
52103;DHT22;38101;53.126;6.878;2022-07-29T07:10:49;16.70;99.90
52103;DHT22;38101;53.126;6.878;2022-07-29T07:13:15;16.80;99.90
52103;DHT22;38101;53.126;6.878;2022-07-29T07:15:43;16.90;99.90
52103;DHT22;38101;53.126;6.878;2022-07-29T07:18:09;16.90;99.90
52103;DHT22;38101;53.126;6.878;2022-07-29T07:20:38;16.90;99.90
52103;DHT22;38101;53.126;6.878;2022-07-29T07:23:04;16.90;99.90
52103;DHT22;38101;53.126;6.878;2022-07-29T07:25:30;17.00;99.90
52103;DHT22;38101;53.126;6.878;2022-07-29T07:27:55;17.00;99.90
52103;DHT22;38101;53.126;6.878;2022-07-29T07:30:21;17.10;99.90
52103;DHT22;38101;53.126;6.878;2022-07-29T07:32:47;17.10;99.90
52103;DHT22;38101;53.126;6.878;2022-07-29T07:35:13;17.10;99.90
52103;DHT22;38101;53.126;6.878;2022-07-29T07:37:39;17.10;99.90
52103;DHT22;38101;53.126;6.878;2022-07-29T07:40:10;17.20;99.90
52103;DHT22;38101;53.126;6.878;2022-07-29T07:42:37;17.20;99.90
52103;DHT22;38101;53.126;6.878;2022-07-29T07:45:04;17.20;99.90
52103;DHT22;38101;53.126;6.878;2022-07-29T07:47:31;17.20;99.90
52103;DHT22;38101;53.126;6.878;2022-07-29T07:49:57;17.20;99.90
52103;DHT22;38101;53.126;6.878;2022-07-29T07:52:23;17.30;99.90
52103;DHT22;38101;53.126;6.878;2022-07-29T07:54:49;17.30;99.90
52103;DHT22;38101;53.126;6.878;2022-07-29T07:57:15;17.40;99.90
52103;DHT22;38101;53.126;6.878;2022-07-29T07:59:41;17.30;99.90
52103;DHT22;38101;53.126;6.878;2022-07-29T08:02:08;17.40;99.90
52103;DHT22;38101;53.126;6.878;2022-07-29T08:04:34;17.50;99.90
52103;DHT22;38101;53.126;6.878;2022-07-29T08:07:01;17.50;99.90
52103;DHT22;38101;53.126;6.878;2022-07-29T08:09:28;17.50;99.90
52103;DHT22;38101;53.126;6.878;2022-07-29T08:11:54;17.50;99.90
52103;DHT22;38101;53.126;6.878;2022-07-29T08:14:20;17.50;99.90
52103;DHT22;38101;53.126;6.878;2022-07-29T08:16:46;17.60;99.90
52103;DHT22;38101;53.126;6.878;2022-07-29T08:19:12;17.60;99.90
52103;DHT22;38101;53.126;6.878;2022-07-29T08:21:38;17.70;99.90
52103;DHT22;38101;53.126;6.878;2022-07-29T08:24:05;17.70;99.90
52103;DHT22;38101;53.126;6.878;2022-07-29T08:26:49;17.80;99.90
52103;DHT22;38101;53.126;6.878;2022-07-29T08:29:15;17.80;99.90
52103;DHT22;38101;53.126;6.878;2022-07-29T08:31:42;17.80;99.90
52103;DHT22;38101;53.126;6.878;2022-07-29T08:34:08;17.90;99.90
52103;DHT22;38101;53.126;6.878;2022-07-29T08:36:34;17.90;99.90
52103;DHT22;38101;53.126;6.878;2022-07-29T08:39:00;18.00;99.90
52103;DHT22;38101;53.126;6.878;2022-07-29T08:41:26;18.00;99.90
52103;DHT22;38101;53.126;6.878;2022-07-29T08:43:52;18.00;99.90
52103;DHT22;38101;53.126;6.878;2022-07-29T08:46:19;18.10;99.90
52103;DHT22;38101;53.126;6.878;2022-07-29T08:48:46;18.10;99.90
52103;DHT22;38101;53.126;6.878;2022-07-29T08:51:17;18.10;99.90
52103;DHT22;38101;53.126;6.878;2022-07-29T08:53:46;18.10;99.90
52103;DHT22;38101;53.126;6.878;2022-07-29T08:56:14;18.10;99.90
52103;DHT22;38101;53.126;6.878;2022-07-29T08:58:42;18.20;99.90
52103;DHT22;38101;53.126;6.878;2022-07-29T09:01:08;18.20;99.90
52103;DHT22;38101;53.126;6.878;2022-07-29T09:03:37;18.30;99.90
52103;DHT22;38101;53.126;6.878;2022-07-29T09:06:04;18.30;99.90
52103;DHT22;38101;53.126;6.878;2022-07-29T09:08:31;18.30;99.90
52103;DHT22;38101;53.126;6.878;2022-07-29T09:10:57;18.30;99.90
52103;DHT22;38101;53.126;6.878;2022-07-29T09:13:23;18.40;99.90
52103;DHT22;38101;53.126;6.878;2022-07-29T09:15:50;18.40;99.90
52103;DHT22;38101;53.126;6.878;2022-07-29T09:18:39;18.40;99.90
52103;DHT22;38101;53.126;6.878;2022-07-29T09:21:07;18.40;99.90
52103;DHT22;38101;53.126;6.878;2022-07-29T09:24:08;18.50;99.90
52103;DHT22;38101;53.126;6.878;2022-07-29T09:26:37;18.40;99.90
52103;DHT22;38101;53.126;6.878;2022-07-29T09:29:21;18.50;99.90
52103;DHT22;38101;53.126;6.878;2022-07-29T09:31:50;18.40;99.90
52103;DHT22;38101;53.126;6.878;2022-07-29T09:34:24;18.50;99.90
52103;DHT22;38101;53.126;6.878;2022-07-29T09:36:51;18.50;99.90
52103;DHT22;38101;53.126;6.878;2022-07-29T09:39:33;18.50;99.90
52103;DHT22;38101;53.126;6.878;2022-07-29T09:42:05;18.50;99.90
52103;DHT22;38101;53.126;6.878;2022-07-29T09:44:49;18.50;99.90
52103;DHT22;38101;53.126;6.878;2022-07-29T09:47:17;18.50;99.90
52103;DHT22;38101;53.126;6.878;2022-07-29T09:49:59;18.50;99.90
52103;DHT22;38101;53.126;6.878;2022-07-29T09:52:26;18.50;99.90
52103;DHT22;38101;53.126;6.878;2022-07-29T09:54:52;18.60;99.90
52103;DHT22;38101;53.126;6.878;2022-07-29T09:57:27;18.60;99.90
52103;DHT22;38101;53.126;6.878;2022-07-29T09:59:58;18.60;99.90
52103;DHT22;38101;53.126;6.878;2022-07-29T10:02:28;18.70;99.90
52103;DHT22;38101;53.126;6.878;2022-07-29T10:04:55;18.80;99.90
52103;DHT22;38101;53.126;6.878;2022-07-29T10:07:21;18.80;99.90
52103;DHT22;38101;53.126;6.878;2022-07-29T10:09:53;18.80;99.90
52103;DHT22;38101;53.126;6.878;2022-07-29T10:12:20;18.90;99.90
52103;DHT22;38101;53.126;6.878;2022-07-29T10:14:46;18.90;99.90
52103;DHT22;38101;53.126;6.878;2022-07-29T10:17:12;19.00;99.90
52103;DHT22;38101;53.126;6.878;2022-07-29T10:19:38;19.10;99.90
52103;DHT22;38101;53.126;6.878;2022-07-29T10:22:08;19.10;99.90
52103;DHT22;38101;53.126;6.878;2022-07-29T10:24:35;19.20;99.90
52103;DHT22;38101;53.126;6.878;2022-07-29T10:27:04;19.30;99.90
52103;DHT22;38101;53.126;6.878;2022-07-29T10:29:31;19.30;99.90
52103;DHT22;38101;53.126;6.878;2022-07-29T10:40:03;19.60;99.90
52103;DHT22;38101;53.126;6.878;2022-07-29T10:42:54;19.70;99.90
52103;DHT22;38101;53.126;6.878;2022-07-29T10:45:21;19.70;99.90
52103;DHT22;38101;53.126;6.878;2022-07-29T10:47:47;19.80;99.90
52103;DHT22;38101;53.126;6.878;2022-07-29T10:50:13;19.80;99.90
52103;DHT22;38101;53.126;6.878;2022-07-29T10:52:52;19.80;99.90
52103;DHT22;38101;53.126;6.878;2022-07-29T10:55:37;19.90;99.90
52103;DHT22;38101;53.126;6.878;2022-07-29T11:00:40;20.10;99.90
52103;DHT22;38101;53.126;6.878;2022-07-29T11:03:06;20.20;99.90
52103;DHT22;38101;53.126;6.878;2022-07-29T11:05:52;20.20;99.90
52103;DHT22;38101;53.126;6.878;2022-07-29T11:08:20;20.30;99.90
52103;DHT22;38101;53.126;6.878;2022-07-29T11:10:50;20.40;99.90
52103;DHT22;38101;53.126;6.878;2022-07-29T11:16:06;20.50;99.90
52103;DHT22;38101;53.126;6.878;2022-07-29T11:18:32;20.50;99.90
52103;DHT22;38101;53.126;6.878;2022-07-29T11:20:59;20.50;99.90
52103;DHT22;38101;53.126;6.878;2022-07-29T11:23:31;20.60;99.90
52103;DHT22;38101;53.126;6.878;2022-07-29T11:28:51;20.70;99.90
52103;DHT22;38101;53.126;6.878;2022-07-29T11:31:39;20.70;99.90
52103;DHT22;38101;53.126;6.878;2022-07-29T11:47:23;21.00;99.90
52103;DHT22;38101;53.126;6.878;2022-07-29T11:49:50;21.00;99.90
52103;DHT22;38101;53.126;6.878;2022-07-29T11:52:17;21.10;99.90
52103;DHT22;38101;53.126;6.878;2022-07-29T11:54:43;21.10;99.90
52103;DHT22;38101;53.126;6.878;2022-07-29T11:57:10;21.10;99.90
52103;DHT22;38101;53.126;6.878;2022-07-29T11:59:40;21.10;99.90
52103;DHT22;38101;53.126;6.878;2022-07-29T12:02:07;21.10;99.90
52103;DHT22;38101;53.126;6.878;2022-07-29T12:04:34;21.20;99.90
52103;DHT22;38101;53.126;6.878;2022-07-29T12:07:13;21.20;99.90
52103;DHT22;38101;53.126;6.878;2022-07-29T12:09:39;21.30;99.90
52103;DHT22;38101;53.126;6.878;2022-07-29T12:12:04;21.30;99.90
52103;DHT22;38101;53.126;6.878;2022-07-29T12:14:32;21.30;99.90
52103;DHT22;38101;53.126;6.878;2022-07-29T12:16:59;21.40;99.90
52103;DHT22;38101;53.126;6.878;2022-07-29T12:19:26;21.50;99.90
52103;DHT22;38101;53.126;6.878;2022-07-29T12:21:53;21.60;99.90
52103;DHT22;38101;53.126;6.878;2022-07-29T12:24:20;21.60;99.90
52103;DHT22;38101;53.126;6.878;2022-07-29T12:26:54;21.60;99.90
52103;DHT22;38101;53.126;6.878;2022-07-29T12:29:20;21.70;99.90
52103;DHT22;38101;53.126;6.878;2022-07-29T12:31:52;21.70;99.90
52103;DHT22;38101;53.126;6.878;2022-07-29T12:34:20;21.70;99.90
52103;DHT22;38101;53.126;6.878;2022-07-29T12:36:48;21.70;99.90
52103;DHT22;38101;53.126;6.878;2022-07-29T12:39:15;21.70;99.90
52103;DHT22;38101;53.126;6.878;2022-07-29T12:41:41;21.70;99.90
52103;DHT22;38101;53.126;6.878;2022-07-29T12:44:07;21.70;99.90
52103;DHT22;38101;53.126;6.878;2022-07-29T12:46:32;21.70;99.90
52103;DHT22;38101;53.126;6.878;2022-07-29T12:48:58;21.70;99.90
52103;DHT22;38101;53.126;6.878;2022-07-29T12:51:38;21.70;99.90
52103;DHT22;38101;53.126;6.878;2022-07-29T12:54:05;21.80;99.90
52103;DHT22;38101;53.126;6.878;2022-07-29T12:56:31;21.70;99.90
52103;DHT22;38101;53.126;6.878;2022-07-29T12:58:57;21.70;99.90
52103;DHT22;38101;53.126;6.878;2022-07-29T13:01:23;21.80;99.90
52103;DHT22;38101;53.126;6.878;2022-07-29T13:03:58;21.80;99.90
52103;DHT22;38101;53.126;6.878;2022-07-29T13:06:44;21.80;99.90
52103;DHT22;38101;53.126;6.878;2022-07-29T13:09:16;21.80;99.90
52103;DHT22;38101;53.126;6.878;2022-07-29T13:11:44;21.80;99.90
52103;DHT22;38101;53.126;6.878;2022-07-29T13:14:13;21.80;99.90
52103;DHT22;38101;53.126;6.878;2022-07-29T13:17:00;21.80;99.90
52103;DHT22;38101;53.126;6.878;2022-07-29T13:20:05;21.70;99.90
52103;DHT22;38101;53.126;6.878;2022-07-29T13:22:31;21.70;99.90
52103;DHT22;38101;53.126;6.878;2022-07-29T13:24:59;21.70;99.90
52103;DHT22;38101;53.126;6.878;2022-07-29T13:27:30;21.70;99.90
52103;DHT22;38101;53.126;6.878;2022-07-29T13:30:00;21.70;99.90
52103;DHT22;38101;53.126;6.878;2022-07-29T13:32:29;21.80;99.90
52103;DHT22;38101;53.126;6.878;2022-07-29T13:35:00;21.70;99.90
52103;DHT22;38101;53.126;6.878;2022-07-29T13:37:27;21.70;99.90
52103;DHT22;38101;53.126;6.878;2022-07-29T13:39:55;21.70;99.90
52103;DHT22;38101;53.126;6.878;2022-07-29T13:42:22;21.80;99.90
52103;DHT22;38101;53.126;6.878;2022-07-29T13:44:47;21.80;99.90
52103;DHT22;38101;53.126;6.878;2022-07-29T13:47:21;21.80;99.90
52103;DHT22;38101;53.126;6.878;2022-07-29T13:49:47;21.80;99.90
52103;DHT22;38101;53.126;6.878;2022-07-29T13:52:14;21.90;99.90
52103;DHT22;38101;53.126;6.878;2022-07-29T13:54:41;21.90;99.90
52103;DHT22;38101;53.126;6.878;2022-07-29T13:57:07;22.00;99.90
52103;DHT22;38101;53.126;6.878;2022-07-29T13:59:33;22.10;99.90
52103;DHT22;38101;53.126;6.878;2022-07-29T14:01:59;22.20;99.90
52103;DHT22;38101;53.126;6.878;2022-07-29T14:04:25;22.20;99.90
52103;DHT22;38101;53.126;6.878;2022-07-29T14:06:51;22.30;99.90
52103;DHT22;38101;53.126;6.878;2022-07-29T14:09:17;22.40;99.90
52103;DHT22;38101;53.126;6.878;2022-07-29T14:11:43;22.50;99.90
52103;DHT22;38101;53.126;6.878;2022-07-29T14:14:09;22.60;99.90
52103;DHT22;38101;53.126;6.878;2022-07-29T14:16:36;22.60;99.90
52103;DHT22;38101;53.126;6.878;2022-07-29T14:19:02;22.60;99.90
52103;DHT22;38101;53.126;6.878;2022-07-29T14:21:28;22.60;99.90
52103;DHT22;38101;53.126;6.878;2022-07-29T14:23:53;22.60;99.90
52103;DHT22;38101;53.126;6.878;2022-07-29T14:26:21;22.60;99.90
52103;DHT22;38101;53.126;6.878;2022-07-29T14:28:48;22.70;99.90
52103;DHT22;38101;53.126;6.878;2022-07-29T14:31:14;22.70;99.90
52103;DHT22;38101;53.126;6.878;2022-07-29T14:33:40;22.70;99.90
52103;DHT22;38101;53.126;6.878;2022-07-29T14:36:06;22.70;99.90
52103;DHT22;38101;53.126;6.878;2022-07-29T14:38:31;22.80;99.90
52103;DHT22;38101;53.126;6.878;2022-07-29T14:40:57;23.00;99.90
52103;DHT22;38101;53.126;6.878;2022-07-29T14:43:23;23.30;99.90
52103;DHT22;38101;53.126;6.878;2022-07-29T14:45:49;23.60;99.90
52103;DHT22;38101;53.126;6.878;2022-07-29T14:48:14;23.90;99.90
52103;DHT22;38101;53.126;6.878;2022-07-29T14:50:40;23.90;99.90
52103;DHT22;38101;53.126;6.878;2022-07-29T14:53:06;23.90;99.90
52103;DHT22;38101;53.126;6.878;2022-07-29T14:55:32;23.90;99.90
52103;DHT22;38101;53.126;6.878;2022-07-29T14:57:58;23.80;99.90
52103;DHT22;38101;53.126;6.878;2022-07-29T15:00:25;23.70;99.90
52103;DHT22;38101;53.126;6.878;2022-07-29T15:02:51;23.60;99.90
52103;DHT22;38101;53.126;6.878;2022-07-29T15:05:17;23.60;99.90
52103;DHT22;38101;53.126;6.878;2022-07-29T15:07:43;23.60;99.90
52103;DHT22;38101;53.126;6.878;2022-07-29T15:10:08;23.60;99.90
52103;DHT22;38101;53.126;6.878;2022-07-29T15:12:35;23.60;99.90
52103;DHT22;38101;53.126;6.878;2022-07-29T15:15:01;23.70;99.90
52103;DHT22;38101;53.126;6.878;2022-07-29T15:17:26;23.90;99.90
52103;DHT22;38101;53.126;6.878;2022-07-29T15:19:52;23.90;99.90
52103;DHT22;38101;53.126;6.878;2022-07-29T15:22:18;23.90;99.90
52103;DHT22;38101;53.126;6.878;2022-07-29T15:24:44;24.00;99.90
52103;DHT22;38101;53.126;6.878;2022-07-29T15:27:10;24.00;99.90
52103;DHT22;38101;53.126;6.878;2022-07-29T15:29:40;24.10;99.90
52103;DHT22;38101;53.126;6.878;2022-07-29T15:32:07;24.20;99.90
52103;DHT22;38101;53.126;6.878;2022-07-29T15:34:33;24.30;99.90
52103;DHT22;38101;53.126;6.878;2022-07-29T15:36:59;24.50;99.90
52103;DHT22;38101;53.126;6.878;2022-07-29T15:39:24;24.60;99.90
52103;DHT22;38101;53.126;6.878;2022-07-29T15:41:50;24.60;99.90
52103;DHT22;38101;53.126;6.878;2022-07-29T15:44:17;24.70;99.90
52103;DHT22;38101;53.126;6.878;2022-07-29T15:46:42;24.70;99.90
52103;DHT22;38101;53.126;6.878;2022-07-29T15:49:27;24.70;99.80
52103;DHT22;38101;53.126;6.878;2022-07-29T15:52:00;24.80;99.40
52103;DHT22;38101;53.126;6.878;2022-07-29T15:54:27;24.90;99.80
52103;DHT22;38101;53.126;6.878;2022-07-29T15:56:53;25.00;99.60
52103;DHT22;38101;53.126;6.878;2022-07-29T15:59:20;25.10;99.10
52103;DHT22;38101;53.126;6.878;2022-07-29T16:01:46;25.30;98.40
52103;DHT22;38101;53.126;6.878;2022-07-29T16:04:12;25.20;97.90
52103;DHT22;38101;53.126;6.878;2022-07-29T16:06:37;25.20;98.00
52103;DHT22;38101;53.126;6.878;2022-07-29T16:09:03;25.30;97.80
52103;DHT22;38101;53.126;6.878;2022-07-29T16:11:29;25.30;97.90
52103;DHT22;38101;53.126;6.878;2022-07-29T16:13:55;25.30;97.90
52103;DHT22;38101;53.126;6.878;2022-07-29T16:16:20;25.40;98.20
52103;DHT22;38101;53.126;6.878;2022-07-29T16:18:46;25.30;98.30
52103;DHT22;38101;53.126;6.878;2022-07-29T16:21:12;25.40;98.30
52103;DHT22;38101;53.126;6.878;2022-07-29T16:23:39;25.40;98.20